Time;durP1;ratioP1;P1;durP2;ratioP2;P2;SDS_P1;SDS_P2;PMS_P1;PMS_P2;Temp;Humidity;BMP_temperature;BMP_pressure;BME280_temperature;BME280_humidity;BME280_pressure;Samples;Min_cycle;Max_cycle;Signal;HPM_P1;HPM_P2
2022/12/06 00:01:45;;;;;;;6.40;2.22;;;6.60;99.90;;;;;;4988274;28;20096;-41
2022/12/06 00:04:12;;;;;;;15.93;3.40;;;6.50;99.90;;;;;;4991624;28;20471;-49
2022/12/06 00:06:47;;;;;;;11.88;2.50;;;6.60;99.90;;;;;;4991043;28;20425;-43
2022/12/06 00:09:27;;;;;;;8.77;3.13;;;6.50;99.90;;;;;;4989923;28;20475;-48
2022/12/06 00:11:54;;;;;;;10.55;3.08;;;6.50;99.90;;;;;;4985781;28;20030;-45
2022/12/06 00:14:20;;;;;;;8.25;2.92;;;6.50;99.90;;;;;;4992444;28;20033;-45
2022/12/06 00:16:46;;;;;;;5.75;3.08;;;6.40;99.90;;;;;;4970070;28;20026;-48
2022/12/06 00:19:14;;;;;;;4.47;2.30;;;6.40;99.90;;;;;;4993163;28;20042;-44
2022/12/06 00:21:40;;;;;;;12.30;2.65;;;6.40;99.90;;;;;;4993162;28;20025;-47
2022/12/06 00:24:10;;;;;;;11.05;3.05;;;6.30;99.90;;;;;;4975642;28;20030;-43
2022/12/06 00:26:41;;;;;;;9.23;3.17;;;6.30;99.90;;;;;;4994742;28;20101;-40
2022/12/06 00:29:10;;;;;;;3.30;2.00;;;6.30;99.90;;;;;;4996046;28;20041;-42
2022/12/06 00:31:36;;;;;;;11.43;3.35;;;6.30;99.90;;;;;;4998600;28;20553;-42
2022/12/06 00:34:02;;;;;;;6.53;2.40;;;6.30;99.90;;;;;;4992118;28;20058;-38
2022/12/06 00:36:31;;;;;;;5.10;2.67;;;6.30;99.90;;;;;;4992891;28;20026;-35
2022/12/06 00:41:47;;;;;;;4.55;2.20;;;6.40;99.90;;;;;;4982861;28;20146;-36
2022/12/06 00:44:13;;;;;;;7.80;2.67;;;6.40;99.90;;;;;;4974789;28;20108;-37
2022/12/06 00:46:39;;;;;;;10.20;2.15;;;6.50;99.90;;;;;;4990477;28;20026;-37
2022/12/06 00:49:06;;;;;;;6.32;2.85;;;6.50;99.90;;;;;;4991917;28;20022;-39
2022/12/06 00:51:33;;;;;;;7.32;2.40;;;6.50;99.90;;;;;;5003467;28;20018;-35
2022/12/06 00:53:58;;;;;;;2.63;2.05;;;6.50;99.90;;;;;;4995026;28;20025;-36
2022/12/06 00:56:25;;;;;;;17.02;2.75;;;6.50;99.90;;;;;;4992196;28;20533;-37
2022/12/06 00:58:51;;;;;;;21.52;2.60;;;6.50;99.90;;;;;;4990330;28;20035;-40
2022/12/06 01:01:22;;;;;;;6.20;2.80;;;6.40;99.90;;;;;;4995565;28;20033;-41
2022/12/06 01:03:50;;;;;;;9.23;2.85;;;6.40;99.90;;;;;;4979773;28;20109;-39
2022/12/06 01:06:17;;;;;;;;;;;6.40;99.90;;;;;;4993725;28;20085;-38
2022/12/06 01:08:43;;;;;;;8.85;1.95;;;6.40;99.90;;;;;;4987970;28;19917;-40
2022/12/06 01:11:11;;;;;;;8.88;2.33;;;6.40;99.90;;;;;;4994473;28;20026;-53
2022/12/06 01:13:37;;;;;;;9.88;3.95;;;6.50;99.90;;;;;;4994575;28;20435;-38
2022/12/06 01:16:12;;;;;;;13.32;3.50;;;6.40;99.90;;;;;;4995001;28;20068;-43
2022/12/06 01:18:39;;;;;;;3.08;2.00;;;6.50;99.90;;;;;;4995127;28;20034;-37
2022/12/06 01:21:09;;;;;;;9.70;2.22;;;6.50;99.90;;;;;;4976175;28;20478;-50
2022/12/06 01:23:35;;;;;;;11.57;2.72;;;6.50;99.90;;;;;;4996089;28;20057;-38
2022/12/06 01:26:01;;;;;;;5.78;2.40;;;6.50;99.90;;;;;;4995024;28;20073;-39
2022/12/06 01:28:26;;;;;;;7.40;2.30;;;6.50;99.90;;;;;;4996212;28;20034;-38
2022/12/06 01:30:52;;;;;;;2.70;1.90;;;6.40;99.90;;;;;;4995286;28;20033;-34
2022/12/06 01:33:18;;;;;;;7.68;3.22;;;6.50;99.90;;;;;;4996338;28;20057;-38
2022/12/06 01:35:43;;;;;;;11.30;2.50;;;6.50;99.90;;;;;;4968239;28;20042;-37
2022/12/06 01:38:09;;;;;;;4.82;1.92;;;6.50;99.90;;;;;;4995234;28;20018;-38
2022/12/06 01:40:39;;;;;;;5.35;1.70;;;6.50;99.90;;;;;;4995479;28;20026;-33
2022/12/06 01:43:09;;;;;;;9.18;2.17;;;6.50;99.90;;;;;;4995223;28;20532;-40
2022/12/06 01:45:34;;;;;;;4.47;1.90;;;6.50;99.90;;;;;;4995123;28;20035;-34
2022/12/06 01:48:00;;;;;;;8.93;2.00;;;6.50;99.90;;;;;;4992614;28;20501;-41
2022/12/06 01:50:31;;;;;;;3.85;2.10;;;6.50;99.90;;;;;;4991558;28;20128;-38
2022/12/06 01:53:07;;;;;;;3.72;1.75;;;6.50;99.90;;;;;;4994007;28;20564;-35
2022/12/06 01:55:36;;;;;;;4.97;2.17;;;6.40;99.90;;;;;;4993397;28;20497;-41
2022/12/06 01:58:09;;;;;;;7.85;2.10;;;6.30;99.90;;;;;;4994342;28;20023;-38
2022/12/06 02:00:35;;;;;;;11.48;1.95;;;6.30;99.90;;;;;;4994706;28;20088;-36
2022/12/06 02:03:03;;;;;;;7.43;2.15;;;6.30;99.90;;;;;;4975825;28;20117;-39
2022/12/06 02:05:29;;;;;;;4.88;1.60;;;6.30;99.90;;;;;;4993510;28;20471;-37
2022/12/06 02:07:57;;;;;;;8.57;1.70;;;6.30;99.90;;;;;;4992534;28;20444;-41
2022/12/06 02:10:22;;;;;;;8.25;1.42;;;6.20;99.90;;;;;;4991955;28;20069;-47
2022/12/06 02:12:53;;;;;;;4.60;1.90;;;6.30;99.90;;;;;;4993840;28;20474;-44
2022/12/06 02:15:32;;;;;;;7.32;1.80;;;6.20;99.90;;;;;;4993686;28;20027;-37
2022/12/06 02:18:26;;;;;;;4.55;1.63;;;6.20;99.90;;;;;;4992003;28;20430;-39
2022/12/06 02:21:03;;;;;;;5.80;2.33;;;6.30;99.90;;;;;;4994775;28;20034;-37
2022/12/06 02:23:52;;;;;;;10.48;1.77;;;6.30;99.90;;;;;;4995001;28;20065;-36
2022/12/06 02:26:31;;;;;;;6.43;2.15;;;6.30;99.90;;;;;;4957167;28;20523;-38
2022/12/06 02:29:26;;;;;;;2.55;1.55;;;6.20;99.90;;;;;;4994895;28;20505;-40
2022/12/06 02:32:10;;;;;;;2.55;1.48;;;6.20;99.90;;;;;;4953917;28;20546;-40
2022/12/06 02:35:03;;;;;;;4.93;1.67;;;6.20;99.90;;;;;;4991730;28;20038;-36
2022/12/06 02:37:38;;;;;;;3.58;1.33;;;6.20;99.90;;;;;;4994917;28;20030;-38
2022/12/06 02:40:18;;;;;;;3.83;1.40;;;6.20;99.90;;;;;;4994595;28;20033;-41
2022/12/06 02:42:49;;;;;;;9.85;1.95;;;6.20;99.90;;;;;;4993406;28;20050;-41
2022/12/06 02:45:20;;;;;;;7.82;1.27;;;6.20;99.90;;;;;;4975013;28;20402;-38
2022/12/06 02:47:47;;;;;;;6.32;1.92;;;6.20;99.90;;;;;;4985224;28;20026;-39
2022/12/06 02:50:18;;;;;;;4.88;1.50;;;6.20;99.90;;;;;;4992395;28;20165;-40
2022/12/06 02:52:47;;;;;;;6.13;1.52;;;6.20;99.90;;;;;;4986879;28;20041;-41
2022/12/06 02:55:15;;;;;;;7.93;1.45;;;6.20;99.90;;;;;;4992944;28;20475;-56
2022/12/06 02:57:45;;;;;;;2.58;1.13;;;6.20;99.90;;;;;;4992749;28;20546;-35
2022/12/06 03:00:35;;;;;;;1.45;1.20;;;6.20;99.90;;;;;;4993582;28;20486;-41
2022/12/06 03:03:39;;;;;;;2.97;1.35;;;6.20;99.90;;;;;;4992529;28;20537;-35
2022/12/06 03:06:16;;;;;;;0.93;0.80;;;6.20;99.90;;;;;;4992877;28;20129;-41
2022/12/06 03:09:02;;;;;;;3.78;1.23;;;6.20;99.90;;;;;;4968785;28;20023;-38
2022/12/06 03:11:56;;;;;;;3.25;1.38;;;6.20;99.90;;;;;;4992725;28;20023;-39
2022/12/06 03:14:24;;;;;;;1.65;1.30;;;6.20;99.90;;;;;;4980012;28;20097;-35
2022/12/06 03:17:05;;;;;;;1.15;0.82;;;6.20;99.90;;;;;;4989470;28;20386;-35
2022/12/06 03:19:32;;;;;;;3.22;1.05;;;6.20;99.90;;;;;;4959466;28;20113;-36
2022/12/06 03:22:29;;;;;;;3.83;1.48;;;6.20;99.90;;;;;;4981311;28;20019;-37
2022/12/06 03:24:57;;;;;;;6.88;1.42;;;6.20;99.90;;;;;;4977935;28;20487;-41
2022/12/06 03:27:24;;;;;;;;;;;6.20;99.90;;;;;;4992996;28;20026;-36
2022/12/06 03:29:54;;;;;;;2.92;1.10;;;6.20;99.90;;;;;;4993722;28;19948;-41
2022/12/06 03:32:23;;;;;;;1.98;1.10;;;6.20;99.90;;;;;;4993751;28;20038;-39
2022/12/06 03:34:51;;;;;;;1.00;1.00;;;6.20;99.90;;;;;;4992738;28;20030;-38
2022/12/06 03:37:22;;;;;;;3.55;1.30;;;6.10;99.90;;;;;;4993645;28;20049;-37
2022/12/06 03:39:58;;;;;;;3.22;1.38;;;6.20;99.90;;;;;;4993610;28;20387;-34
2022/12/06 03:42:24;;;;;;;3.80;1.40;;;6.20;99.90;;;;;;4993433;28;20100;-39
2022/12/06 03:44:50;;;;;;;2.55;1.10;;;6.20;99.90;;;;;;4992987;28;20042;-35
2022/12/06 03:47:37;;;;;;;6.70;1.05;;;6.20;99.90;;;;;;4992904;28;20054;-42
2022/12/06 03:50:17;;;;;;;2.70;1.10;;;6.20;99.90;;;;;;4990953;28;20581;-41
2022/12/06 03:52:42;;;;;;;4.03;1.17;;;6.20;99.90;;;;;;4989312;28;20033;-41
2022/12/06 03:55:08;;;;;;;1.88;1.08;;;6.20;99.90;;;;;;4990880;28;20038;-42
2022/12/06 03:57:34;;;;;;;2.53;1.30;;;6.20;99.90;;;;;;4992579;28;20030;-42
2022/12/06 04:00:00;;;;;;;2.90;1.55;;;6.30;99.90;;;;;;4992947;28;20383;-42
2022/12/06 04:02:26;;;;;;;3.22;0.90;;;6.30;99.90;;;;;;4972024;28;20034;-42
2022/12/06 04:04:52;;;;;;;3.10;1.05;;;6.30;99.90;;;;;;4987610;28;20505;-42
2022/12/06 04:07:20;;;;;;;3.75;1.40;;;6.30;99.90;;;;;;4974722;28;20015;-44
2022/12/06 04:09:55;;;;;;;3.85;0.88;;;6.30;99.90;;;;;;4992294;28;20022;-43
2022/12/06 04:15:08;;;;;;;4.68;1.00;;;6.20;99.90;;;;;;4990463;28;20041;-37
2022/12/06 04:20:21;;;;;;;;;;;6.20;99.90;;;;;;4991750;28;20088;-41
2022/12/06 04:23:05;;;;;;;2.92;1.05;;;6.20;99.90;;;;;;4992112;28;19906;-46
2022/12/06 04:25:32;;;;;;;2.45;0.95;;;6.20;99.90;;;;;;4969777;28;20033;-48
2022/12/06 04:38:55;;;;;;;3.40;1.10;;;6.00;99.90;;;;;;4994979;28;20516;-45
2022/12/06 04:44:05;;;;;;;4.25;1.08;;;6.00;99.90;;;;;;4992356;28;20037;-42
2022/12/06 04:46:31;;;;;;;8.13;1.20;;;5.90;99.90;;;;;;4994510;28;20030;-42
2022/12/06 04:48:57;;;;;;;7.82;1.63;;;5.90;99.90;;;;;;4995329;28;20030;-43
2022/12/06 04:51:23;;;;;;;5.13;1.30;;;5.90;99.90;;;;;;4995505;28;20172;-46
2022/12/06 04:53:49;;;;;;;5.75;1.48;;;5.90;99.90;;;;;;4976128;28;20019;-45
2022/12/06 04:56:14;;;;;;;1.58;1.40;;;5.90;99.90;;;;;;4994007;28;20037;-43
2022/12/06 04:58:41;;;;;;;3.03;1.00;;;6.00;99.90;;;;;;4978212;28;20053;-39
2022/12/06 05:01:07;;;;;;;3.70;1.05;;;6.00;99.90;;;;;;4995652;28;20038;-42
2022/12/06 05:03:32;;;;;;;5.07;0.77;;;6.00;99.90;;;;;;4994002;28;20113;-42
2022/12/06 05:05:58;;;;;;;5.63;0.98;;;5.90;99.90;;;;;;4995791;28;20030;-43
2022/12/06 05:08:23;;;;;;;2.58;0.82;;;5.90;99.90;;;;;;4995565;28;20398;-45
2022/12/06 05:10:50;;;;;;;1.48;0.93;;;5.90;99.90;;;;;;4995726;28;20474;-44
2022/12/06 05:13:17;;;;;;;2.92;0.98;;;5.80;99.90;;;;;;4976279;28;20033;-44
2022/12/06 05:15:57;;;;;;;5.18;1.85;;;5.90;99.90;;;;;;4979682;28;20660;-42
2022/12/06 05:18:23;;;;;;;7.55;2.08;;;5.80;99.90;;;;;;4995820;28;20026;-43
2022/12/06 05:20:49;;;;;;;3.28;0.88;;;5.70;99.90;;;;;;4975307;28;20062;-46
2022/12/06 05:23:16;;;;;;;2.13;1.33;;;5.70;99.90;;;;;;4993271;28;20037;-41
2022/12/06 05:25:42;;;;;;;5.75;1.13;;;5.70;99.90;;;;;;4995000;28;20390;-42
2022/12/06 05:28:08;;;;;;;0.93;0.85;;;5.70;99.90;;;;;;4995348;28;20368;-45
2022/12/06 05:30:34;;;;;;;5.25;0.98;;;5.70;99.90;;;;;;4995973;28;20489;-48
2022/12/06 05:33:00;;;;;;;6.13;1.13;;;5.70;99.90;;;;;;4995096;28;20063;-43
2022/12/06 05:35:25;;;;;;;3.92;1.30;;;5.70;99.90;;;;;;4979120;28;20027;-43
2022/12/06 05:37:51;;;;;;;2.00;1.13;;;5.70;99.90;;;;;;4982618;28;20034;-43
2022/12/06 05:40:17;;;;;;;4.30;1.08;;;5.70;99.90;;;;;;4994886;28;20031;-44
2022/12/06 05:42:42;;;;;;;4.75;1.45;;;5.70;99.90;;;;;;4995551;28;20177;-43
2022/12/06 05:45:09;;;;;;;1.30;1.17;;;5.70;99.90;;;;;;4994811;28;20035;-43
2022/12/06 05:47:34;;;;;;;1.65;1.10;;;5.60;99.90;;;;;;4995599;28;20109;-44
2022/12/06 05:50:01;;;;;;;3.78;1.17;;;5.50;99.90;;;;;;4992993;28;20113;-46
2022/12/06 05:52:26;;;;;;;3.00;0.90;;;5.50;99.90;;;;;;5012720;28;20120;-42
2022/12/06 05:54:52;;;;;;;1.25;0.95;;;5.50;99.90;;;;;;5002529;28;20491;-43
2022/12/06 05:57:17;;;;;;;1.70;1.25;;;5.40;99.90;;;;;;4990890;28;20076;-40
2022/12/06 05:59:43;;;;;;;9.95;1.35;;;5.40;99.90;;;;;;4993339;28;20037;-37
2022/12/06 06:02:09;;;;;;;3.85;1.10;;;5.40;99.90;;;;;;4993410;28;20039;-37
2022/12/06 06:04:35;;;;;;;1.58;1.13;;;5.40;99.90;;;;;;4992988;28;20045;-35
2022/12/06 06:07:00;;;;;;;7.65;1.23;;;5.40;99.90;;;;;;4993495;28;20387;-36
2022/12/06 06:09:26;;;;;;;2.00;1.02;;;5.40;99.90;;;;;;4995241;28;20501;-41
2022/12/06 06:11:55;;;;;;;3.88;1.10;;;5.40;99.90;;;;;;4992692;28;20483;-42
2022/12/06 06:14:21;;;;;;;2.67;0.93;;;5.40;99.90;;;;;;4992477;28;20471;-36
2022/12/06 06:16:47;;;;;;;1.48;0.98;;;5.50;99.90;;;;;;4992588;28;20487;-44
2022/12/06 06:19:12;;;;;;;1.58;0.88;;;5.50;99.90;;;;;;4993218;28;20029;-38
2022/12/06 06:21:38;;;;;;;2.08;1.08;;;5.50;99.90;;;;;;4994281;28;20066;-43
2022/12/06 06:24:04;;;;;;;2.53;1.25;;;5.50;99.90;;;;;;5005909;28;20038;-45
2022/12/06 06:26:29;;;;;;;8.60;1.10;;;5.50;99.90;;;;;;4999307;28;20030;-39
2022/12/06 06:28:58;;;;;;;7.20;1.15;;;5.50;99.90;;;;;;4976458;28;20050;-40
2022/12/06 06:31:23;;;;;;;1.13;0.90;;;5.40;99.90;;;;;;4994167;28;20038;-38
2022/12/06 06:33:49;;;;;;;3.40;1.08;;;5.40;99.90;;;;;;4994474;28;20450;-43
2022/12/06 06:36:15;;;;;;;1.40;1.15;;;5.40;99.90;;;;;;4991632;28;20044;-38
2022/12/06 06:38:40;;;;;;;4.35;0.93;;;5.30;99.90;;;;;;4990958;28;20030;-39
2022/12/06 06:41:07;;;;;;;2.70;1.05;;;5.30;99.90;;;;;;4993071;28;20121;-35
2022/12/06 06:43:33;;;;;;;2.22;1.30;;;5.20;99.90;;;;;;4992868;28;20510;-35
2022/12/06 06:46:00;;;;;;;2.22;1.40;;;5.20;99.90;;;;;;4994115;28;20034;-38
2022/12/06 06:48:30;;;;;;;3.45;1.38;;;5.20;99.90;;;;;;4992671;28;20042;-39
2022/12/06 06:51:00;;;;;;;2.22;1.20;;;5.10;99.90;;;;;;4992635;28;20470;-39
2022/12/06 06:53:26;;;;;;;4.00;1.48;;;5.10;99.90;;;;;;4994077;28;20483;-35
2022/12/06 06:55:52;;;;;;;5.68;1.38;;;5.00;99.90;;;;;;4993175;28;20031;-38
2022/12/06 06:58:18;;;;;;;1.65;1.02;;;5.00;99.90;;;;;;4991666;28;20037;-40
2022/12/06 07:00:44;;;;;;;3.00;1.20;;;4.90;99.90;;;;;;4992673;28;20390;-38
2022/12/06 07:03:14;;;;;;;7.07;1.20;;;4.90;99.90;;;;;;4970496;28;20026;-46
2022/12/06 07:05:42;;;;;;;1.67;1.08;;;4.90;99.90;;;;;;4979354;28;20034;-44
2022/12/06 07:08:08;;;;;;;5.60;1.10;;;4.90;99.90;;;;;;4976688;28;20105;-40
2022/12/06 07:10:34;;;;;;;1.48;1.00;;;4.80;99.90;;;;;;4976530;28;20029;-44
2022/12/06 07:12:59;;;;;;;3.00;1.17;;;4.80;99.90;;;;;;4994232;28;20462;-44
2022/12/06 07:15:25;;;;;;;3.83;2.17;;;4.70;99.90;;;;;;4976556;28;20026;-42
2022/12/06 07:17:52;;;;;;;2.70;1.42;;;4.70;99.90;;;;;;4993881;28;20479;-40
2022/12/06 07:20:18;;;;;;;4.72;1.48;;;4.70;99.90;;;;;;4992076;28;20030;-41
2022/12/06 07:22:44;;;;;;;4.25;1.30;;;4.60;99.90;;;;;;4992587;28;20521;-41
2022/12/06 07:25:09;;;;;;;2.65;1.30;;;4.60;99.90;;;;;;4976135;28;20564;-66
2022/12/06 07:27:35;;;;;;;4.80;1.85;;;4.60;99.90;;;;;;4993743;28;20103;-55
2022/12/06 07:30:03;;;;;;;4.45;1.70;;;4.60;99.90;;;;;;4993829;28;20026;-48
2022/12/06 07:32:33;;;;;;;2.05;1.10;;;4.50;99.90;;;;;;4985909;28;20030;-44
2022/12/06 07:34:59;;;;;;;2.65;1.40;;;4.50;99.90;;;;;;4992759;28;20062;-37
2022/12/06 07:37:25;;;;;;;5.15;1.17;;;4.50;99.90;;;;;;4990411;28;20053;-42
2022/12/06 07:39:50;;;;;;;3.22;1.70;;;4.50;99.90;;;;;;4991138;28;20034;-43
2022/12/06 07:45:00;;;;;;;3.88;1.83;;;4.40;99.90;;;;;;4988740;28;20053;-45
2022/12/06 07:47:26;;;;;;;4.82;2.00;;;4.40;99.90;;;;;;4992180;28;20018;-38
2022/12/06 07:49:52;;;;;;;4.22;1.70;;;4.40;99.90;;;;;;4989584;28;20030;-42
2022/12/06 07:52:19;;;;;;;4.18;2.05;;;4.30;99.90;;;;;;4986333;28;20065;-40
2022/12/06 07:54:45;;;;;;;4.22;1.55;;;4.30;99.90;;;;;;4991023;28;20034;-42
2022/12/06 07:57:10;;;;;;;13.05;2.78;;;4.30;99.90;;;;;;4991252;28;20132;-48
2022/12/06 07:59:36;;;;;;;10.82;5.60;;;4.40;99.90;;;;;;4991532;28;20445;-43
2022/12/06 08:02:02;;;;;;;4.80;3.08;;;4.30;99.90;;;;;;4989994;28;20035;-43
2022/12/06 08:04:27;;;;;;;2.65;2.17;;;4.40;99.90;;;;;;4991826;28;20069;-46
2022/12/06 08:06:53;;;;;;;5.20;2.38;;;4.40;99.90;;;;;;4991032;28;20034;-41
2022/12/06 08:09:22;;;;;;;4.00;2.83;;;4.40;99.90;;;;;;4967635;28;20030;-46
2022/12/06 08:11:47;;;;;;;5.10;2.25;;;4.30;99.90;;;;;;4995030;28;20474;-37
2022/12/06 08:14:14;;;;;;;4.53;2.17;;;4.40;99.90;;;;;;4997389;28;20027;-40
2022/12/06 08:16:40;;;;;;;8.60;2.70;;;4.40;99.90;;;;;;4989693;28;20028;-57
2022/12/06 08:19:07;;;;;;;5.45;2.85;;;4.50;99.90;;;;;;4995753;28;20022;-38
2022/12/06 08:21:32;;;;;;;6.22;2.58;;;4.50;99.90;;;;;;4995249;28;20042;-40
2022/12/06 08:23:58;;;;;;;5.70;2.15;;;4.60;99.90;;;;;;4994868;28;20489;-38
2022/12/06 08:26:24;;;;;;;5.70;2.85;;;4.60;99.90;;;;;;4991953;28;20035;-41
2022/12/06 08:28:50;;;;;;;11.82;2.92;;;4.60;99.90;;;;;;5001162;28;20022;-36
2022/12/06 08:31:19;;;;;;;4.90;2.88;;;4.60;99.90;;;;;;4994203;28;20394;-37
2022/12/06 08:33:45;;;;;;;5.57;2.67;;;4.60;99.90;;;;;;4995386;28;20475;-43
2022/12/06 08:36:13;;;;;;;6.78;2.63;;;4.70;99.90;;;;;;4993951;28;20029;-38
2022/12/06 08:38:39;;;;;;;8.32;3.08;;;4.80;99.90;;;;;;4993823;28;20205;-39
2022/12/06 08:41:54;;;;;;;6.78;2.63;;;4.90;99.90;;;;;;4994849;28;20490;-39
2022/12/06 08:43:52;;;;;;;6.80;2.85;;;4.90;99.90;;;;;;4992828;28;20108;-35
2022/12/06 08:46:18;;;;;;;6.75;3.30;;;5.00;99.90;;;;;;4992435;28;20030;-38
2022/12/06 08:48:44;;;;;;;7.28;2.50;;;5.00;99.90;;;;;;4996932;28;20028;-38
2022/12/06 08:51:09;;;;;;;5.82;3.10;;;5.00;99.90;;;;;;4994360;28;20022;-41
2022/12/06 08:53:35;;;;;;;6.03;3.15;;;5.10;99.90;;;;;;4993319;28;20156;-43
2022/12/06 08:56:00;;;;;;;8.43;3.30;;;5.10;99.90;;;;;;4995037;28;20034;-40
2022/12/06 08:58:26;;;;;;;6.60;2.85;;;5.20;99.90;;;;;;4995589;28;20035;-40
2022/12/06 09:00:52;;;;;;;5.68;2.88;;;5.20;99.90;;;;;;4994283;28;20508;-39
2022/12/06 09:03:17;;;;;;;3.72;2.75;;;5.20;99.90;;;;;;4973312;28;20081;-40
2022/12/06 09:05:43;;;;;;;3.13;2.70;;;5.30;99.90;;;;;;4994907;28;20027;-51
2022/12/06 09:08:09;;;;;;;9.73;2.72;;;5.40;99.90;;;;;;4995359;28;20101;-42
2022/12/06 09:10:34;;;;;;;8.77;2.90;;;5.40;99.90;;;;;;4989964;28;20030;-38
2022/12/06 09:13:00;;;;;;;3.88;2.78;;;5.50;99.90;;;;;;4989691;28;20076;-38
2022/12/06 09:15:26;;;;;;;5.75;2.80;;;5.50;99.90;;;;;;4993518;28;20045;-41
2022/12/06 09:17:51;;;;;;;10.57;3.38;;;5.60;99.90;;;;;;4993127;28;20079;-39
2022/12/06 09:20:17;;;;;;;8.02;2.80;;;5.70;99.90;;;;;;4991536;28;20479;-36
2022/12/06 09:22:43;;;;;;;7.97;3.00;;;5.70;99.90;;;;;;4992509;28;20093;-37
2022/12/06 09:25:10;;;;;;;9.82;3.00;;;5.80;99.90;;;;;;4994881;28;20032;-37
2022/12/06 09:27:36;;;;;;;5.90;2.25;;;5.80;99.90;;;;;;4992402;28;20041;-42
2022/12/06 09:30:02;;;;;;;6.72;2.88;;;6.00;99.90;;;;;;4994887;28;20026;-41
2022/12/06 09:32:27;;;;;;;4.50;2.60;;;6.00;99.90;;;;;;4964554;28;20027;-46
2022/12/06 09:34:53;;;;;;;9.75;2.60;;;6.10;99.90;;;;;;4988335;28;20034;-36
2022/12/06 09:37:21;;;;;;;9.65;3.13;;;6.20;99.90;;;;;;4995198;28;20030;-40
2022/12/06 09:39:56;;;;;;;8.57;2.72;;;6.30;99.90;;;;;;4995805;28;20041;-43
2022/12/06 09:42:34;;;;;;;3.28;1.95;;;6.30;99.90;;;;;;4995668;28;20128;-38
2022/12/06 09:45:26;;;;;;;2.97;1.98;;;6.30;99.90;;;;;;4994762;28;20478;-38
2022/12/06 09:48:21;;;;;;;7.70;2.20;;;6.40;99.90;;;;;;4993615;28;20109;-41
2022/12/06 09:50:58;;;;;;;5.53;2.28;;;6.40;99.90;;;;;;4995883;28;20026;-41
2022/12/06 09:53:29;;;;;;;5.22;2.22;;;6.50;99.90;;;;;;4994561;28;20034;-35
2022/12/06 09:56:23;;;;;;;4.15;1.95;;;6.50;99.90;;;;;;4995891;28;20471;-38
2022/12/06 09:58:48;;;;;;;9.85;2.08;;;6.60;99.90;;;;;;5005583;28;20062;-37
2022/12/06 10:04:29;;;;;;;5.20;2.10;;;6.80;99.90;;;;;;5001763;28;20040;-38
2022/12/06 10:07:10;;;;;;;9.18;2.05;;;6.80;99.90;;;;;;4995383;28;20030;-40
2022/12/06 10:09:57;;;;;;;5.40;1.90;;;6.80;99.90;;;;;;4995377;28;20027;-38
2022/12/06 10:12:46;;;;;;;7.63;2.13;;;6.90;99.90;;;;;;4978363;28;20505;-36
2022/12/06 10:15:21;;;;;;;2.30;1.88;;;7.00;99.90;;;;;;4986931;28;20057;-36
2022/12/06 10:18:05;;;;;;;3.67;2.08;;;7.00;99.90;;;;;;4993624;28;20037;-37
2022/12/06 10:20:58;;;;;;;3.63;1.90;;;6.90;99.90;;;;;;4995150;28;20130;-35
2022/12/06 10:23:30;;;;;;;5.25;2.08;;;6.90;99.90;;;;;;4976202;28;20038;-53
2022/12/06 10:25:58;;;;;;;2.40;1.88;;;7.00;99.90;;;;;;4994889;28;20081;-43
2022/12/06 10:28:31;;;;;;;6.22;1.73;;;7.00;99.90;;;;;;4993892;28;20058;-40
2022/12/06 10:31:06;;;;;;;3.67;1.90;;;7.00;99.90;;;;;;4993050;28;20026;-36
2022/12/06 10:33:59;;;;;;;3.72;1.85;;;7.10;99.90;;;;;;4977312;28;20085;-37
2022/12/06 10:37:01;;;;;;;4.00;1.80;;;7.00;99.90;;;;;;4993848;28;20526;-35
2022/12/06 10:39:38;;;;;;;3.30;1.92;;;7.00;99.90;;;;;;4994021;28;20034;-36
2022/12/06 10:42:27;;;;;;;5.57;2.00;;;7.00;99.90;;;;;;4993661;28;20479;-42
2022/12/06 10:47:02;;;;;;;3.95;1.50;;;7.10;99.90;;;;;;4992830;28;20125;-36
2022/12/06 10:48:02;;;;;;;2.65;1.90;;;7.20;99.90;;;;;;4993513;28;20039;-37
2022/12/06 10:50:32;;;;;;;7.18;2.13;;;7.50;99.90;;;;;;4994759;28;20635;-38
2022/12/06 10:53:10;;;;;;;5.32;1.75;;;7.80;99.90;;;;;;4993480;28;20391;-39
2022/12/06 10:55:47;;;;;;;2.78;1.45;;;7.90;99.90;;;;;;4993488;28;20442;-37
2022/12/06 10:58:25;;;;;;;2.53;1.50;;;7.90;99.90;;;;;;4993210;28;20065;-38
2022/12/06 11:01:08;;;;;;;2.80;1.73;;;7.90;99.90;;;;;;4993776;28;20539;-40
2022/12/06 11:03:40;;;;;;;2.00;1.50;;;7.90;99.90;;;;;;4993365;28;20111;-39
2022/12/06 11:06:34;;;;;;;2.88;1.75;;;7.90;99.90;;;;;;4994068;28;20450;-38
2022/12/06 11:09:16;;;;;;;3.03;1.60;;;7.90;99.90;;;;;;4955536;28;20034;-40
2022/12/06 11:11:44;;;;;;;3.60;1.58;;;8.10;99.90;;;;;;4993036;28;20034;-37
2022/12/06 11:14:25;;;;;;;1.85;1.75;;;8.10;99.90;;;;;;4993253;28;20415;-42
2022/12/06 11:17:02;;;;;;;2.33;1.60;;;8.10;99.90;;;;;;4993854;28;20026;-54
2022/12/06 11:19:49;;;;;;;10.38;1.67;;;8.10;99.90;;;;;;4992975;28;20026;-36
2022/12/06 11:22:36;;;;;;;5.95;2.13;;;8.20;99.90;;;;;;4992100;28;20022;-38
2022/12/06 11:25:14;;;;;;;5.10;1.42;;;8.30;99.90;;;;;;4993934;28;20127;-41
2022/12/06 11:27:50;;;;;;;;;;;8.30;99.90;;;;;;5005760;28;20466;-40
2022/12/06 11:30:18;;;;;;;2.97;1.60;;;8.30;99.90;;;;;;5013477;28;20277;-41
2022/12/06 11:32:45;;;;;;;2.03;1.40;;;8.30;99.90;;;;;;5007636;28;20028;-50
2022/12/06 11:35:15;;;;;;;4.05;1.60;;;8.30;99.90;;;;;;4990924;28;20510;-42
2022/12/06 11:37:42;;;;;;;1.83;1.15;;;8.30;99.90;;;;;;4992824;28;20479;-34
2022/12/06 11:40:23;;;;;;;5.00;1.33;;;8.40;99.90;;;;;;4990990;28;20030;-42
2022/12/06 11:42:49;;;;;;;4.97;1.60;;;8.50;99.90;;;;;;4992352;28;20042;-39
2022/12/06 11:45:24;;;;;;;2.20;1.40;;;8.50;99.90;;;;;;4992594;28;20035;-35
2022/12/06 11:47:55;;;;;;;4.30;1.58;;;8.60;99.90;;;;;;4992989;28;20023;-35
2022/12/06 11:50:22;;;;;;;2.45;1.40;;;8.70;99.90;;;;;;4992667;28;20447;-39
2022/12/06 11:52:51;;;;;;;3.97;1.73;;;8.70;99.90;;;;;;4993606;28;20395;-37
2022/12/06 11:55:27;;;;;;;2.25;1.02;;;8.70;99.90;;;;;;4991525;28;20030;-35
2022/12/06 11:58:31;;;;;;;4.50;1.08;;;8.70;99.90;;;;;;4993632;28;20446;-38
2022/12/06 12:01:09;;;;;;;2.15;0.93;;;8.60;99.90;;;;;;4992336;28;20030;-35
2022/12/06 12:03:41;;;;;;;1.33;1.20;;;8.60;99.90;;;;;;4968839;28;20097;-39
2022/12/06 12:06:27;;;;;;;3.20;1.00;;;8.70;99.90;;;;;;4956515;28;20490;-42
2022/12/06 12:08:58;;;;;;;5.50;1.65;;;8.90;99.90;;;;;;4973880;28;20031;-37
2022/12/06 12:11:29;;;;;;;1.65;0.57;;;9.00;99.90;;;;;;4984430;28;20025;-46
2022/12/06 12:14:00;;;;;;;3.03;1.48;;;9.00;99.90;;;;;;4993429;28;20371;-48
2022/12/06 12:16:57;;;;;;;1.15;0.90;;;9.00;99.90;;;;;;4993273;28;20491;-43
2022/12/06 12:19:44;;;;;;;1.05;0.95;;;8.90;99.90;;;;;;4969939;28;20046;-42
2022/12/06 12:22:24;;;;;;;2.35;1.77;;;9.00;99.90;;;;;;4993266;28;20093;-40
2022/12/06 12:24:52;;;;;;;3.85;1.55;;;8.90;99.90;;;;;;4975962;28;20046;-38
2022/12/06 12:27:32;;;;;;;3.60;1.17;;;8.90;99.90;;;;;;4993025;28;20356;-40
2022/12/06 12:30:17;;;;;;;2.80;1.75;;;8.90;99.90;;;;;;4969880;28;20026;-42
2022/12/06 12:32:43;;;;;;;3.25;1.15;;;9.00;99.90;;;;;;4987814;28;20092;-39
2022/12/06 12:35:36;;;;;;;1.67;1.13;;;9.00;99.90;;;;;;4988760;28;20088;-38
2022/12/06 12:38:37;;;;;;;6.07;1.92;;;9.00;99.90;;;;;;4988711;28;20039;-42
2022/12/06 12:41:11;;;;;;;1.65;1.50;;;8.90;99.90;;;;;;4944937;28;20073;-37
2022/12/06 12:43:38;;;;;;;2.88;1.65;;;8.90;99.90;;;;;;4969878;28;20066;-41
2022/12/06 12:46:10;;;;;;;3.90;1.00;;;8.90;99.90;;;;;;4963269;28;20061;-40
2022/12/06 12:48:39;;;;;;;2.47;1.25;;;8.90;99.90;;;;;;4964784;28;20043;-39
2022/12/06 12:51:20;;;;;;;2.25;0.90;;;8.90;99.90;;;;;;4968836;28;20030;-36
2022/12/06 12:53:48;;;;;;;1.42;0.98;;;8.90;99.90;;;;;;4982630;28;20606;-41
2022/12/06 12:56:19;;;;;;;1.10;0.90;;;9.00;99.90;;;;;;4978655;28;20046;-41
2022/12/06 12:58:54;;;;;;;2.38;0.73;;;8.90;99.90;;;;;;4976031;28;20039;-42
2022/12/06 13:01:42;;;;;;;1.65;0.70;;;8.90;99.90;;;;;;4964542;28;20031;-41
2022/12/06 13:04:42;;;;;;;2.75;0.52;;;8.90;99.90;;;;;;4971926;28;20498;-37
2022/12/06 13:07:19;;;;;;;6.10;1.38;;;8.90;99.90;;;;;;4961896;28;20043;-38
2022/12/06 13:09:45;;;;;;;2.85;0.57;;;8.90;99.90;;;;;;4975267;28;20479;-38
2022/12/06 13:12:19;;;;;;;0.70;0.68;;;8.90;99.90;;;;;;4974683;28;20041;-38
2022/12/06 13:14:52;;;;;;;3.97;1.15;;;8.90;99.90;;;;;;4967872;28;20023;-36
2022/12/06 13:17:22;;;;;;;1.90;0.75;;;8.90;99.90;;;;;;4974002;28;20483;-39
2022/12/06 13:19:48;;;;;;;6.78;0.90;;;8.90;99.90;;;;;;4972730;28;20033;-41
2022/12/06 13:22:25;;;;;;;2.75;0.82;;;8.90;99.90;;;;;;4972295;28;20101;-36
2022/12/06 13:25:05;;;;;;;3.30;1.33;;;9.00;99.90;;;;;;4976484;28;20110;-36
2022/12/06 13:27:40;;;;;;;0.93;0.75;;;9.00;99.90;;;;;;4986834;28;20037;-38
2022/12/06 13:30:12;;;;;;;2.47;1.10;;;9.00;99.90;;;;;;4996070;28;20105;-36
2022/12/06 13:32:53;;;;;;;4.07;1.17;;;9.00;99.90;;;;;;4994818;28;20514;-38
2022/12/06 13:35:30;;;;;;;1.42;1.23;;;8.90;99.90;;;;;;4996246;28;20030;-36
2022/12/06 13:38:02;;;;;;;2.00;1.13;;;8.90;99.90;;;;;;4996099;28;20390;-39
2022/12/06 13:40:37;;;;;;;1.35;1.25;;;9.00;99.90;;;;;;4995856;28;20142;-37
2022/12/06 13:43:05;;;;;;;2.08;1.05;;;9.00;99.90;;;;;;5011380;28;20136;-41
2022/12/06 13:45:44;;;;;;;1.95;0.98;;;9.10;99.90;;;;;;5015136;28;20048;-41
2022/12/06 13:48:24;;;;;;;1.52;1.00;;;9.00;99.90;;;;;;5015161;28;20081;-34